sensor_id;sensor_type;location;lat;lon;timestamp;P1;durP1;ratioP1;P2;durP2;ratioP2
56712;SDS011;42589;45.536;9.032;2023-02-03T00:02:29;33.47;;;21.63;;
56712;SDS011;42589;45.536;9.032;2023-02-03T00:05:30;30.10;;;21.00;;
56712;SDS011;42589;45.536;9.032;2023-02-03T00:08:31;32.30;;;21.27;;
56712;SDS011;42589;45.536;9.032;2023-02-03T00:11:35;32.63;;;21.10;;
56712;SDS011;42589;45.536;9.032;2023-02-03T00:14:36;34.10;;;20.90;;
56712;SDS011;42589;45.536;9.032;2023-02-03T00:17:37;33.28;;;21.08;;
56712;SDS011;42589;45.536;9.032;2023-02-03T00:20:37;30.60;;;19.73;;
56712;SDS011;42589;45.536;9.032;2023-02-03T00:23:38;29.58;;;19.77;;
56712;SDS011;42589;45.536;9.032;2023-02-03T00:26:39;32.35;;;20.98;;
56712;SDS011;42589;45.536;9.032;2023-02-03T00:29:42;33.97;;;21.40;;
56712;SDS011;42589;45.536;9.032;2023-02-03T00:32:43;32.45;;;21.08;;
56712;SDS011;42589;45.536;9.032;2023-02-03T00:35:44;37.38;;;21.42;;
56712;SDS011;42589;45.536;9.032;2023-02-03T00:38:45;34.22;;;22.55;;
56712;SDS011;42589;45.536;9.032;2023-02-03T00:41:49;32.37;;;21.13;;
56712;SDS011;42589;45.536;9.032;2023-02-03T00:44:50;31.23;;;21.02;;
56712;SDS011;42589;45.536;9.032;2023-02-03T00:47:51;32.70;;;20.98;;
56712;SDS011;42589;45.536;9.032;2023-02-03T00:50:52;30.15;;;20.48;;
56712;SDS011;42589;45.536;9.032;2023-02-03T00:53:53;32.33;;;20.77;;
56712;SDS011;42589;45.536;9.032;2023-02-03T00:56:54;30.38;;;21.42;;
56712;SDS011;42589;45.536;9.032;2023-02-03T00:59:55;30.15;;;20.80;;
56712;SDS011;42589;45.536;9.032;2023-02-03T01:02:57;29.25;;;20.50;;
56712;SDS011;42589;45.536;9.032;2023-02-03T01:06:08;30.35;;;20.23;;
56712;SDS011;42589;45.536;9.032;2023-02-03T01:09:09;28.45;;;18.92;;
56712;SDS011;42589;45.536;9.032;2023-02-03T01:12:10;29.67;;;19.58;;
56712;SDS011;42589;45.536;9.032;2023-02-03T01:15:10;28.88;;;19.75;;
56712;SDS011;42589;45.536;9.032;2023-02-03T01:18:11;25.65;;;18.15;;
56712;SDS011;42589;45.536;9.032;2023-02-03T01:21:14;26.55;;;18.23;;
56712;SDS011;42589;45.536;9.032;2023-02-03T01:24:18;27.80;;;18.63;;
56712;SDS011;42589;45.536;9.032;2023-02-03T01:27:19;26.50;;;18.27;;
56712;SDS011;42589;45.536;9.032;2023-02-03T01:30:20;24.77;;;17.80;;
56712;SDS011;42589;45.536;9.032;2023-02-03T01:33:24;24.15;;;17.50;;
56712;SDS011;42589;45.536;9.032;2023-02-03T01:36:26;27.80;;;18.50;;
56712;SDS011;42589;45.536;9.032;2023-02-03T01:39:28;26.38;;;18.08;;
56712;SDS011;42589;45.536;9.032;2023-02-03T01:42:31;30.52;;;19.33;;
56712;SDS011;42589;45.536;9.032;2023-02-03T01:45:32;27.20;;;19.48;;
56712;SDS011;42589;45.536;9.032;2023-02-03T01:48:34;27.60;;;18.85;;
56712;SDS011;42589;45.536;9.032;2023-02-03T01:51:36;25.08;;;17.85;;
56712;SDS011;42589;45.536;9.032;2023-02-03T01:54:40;30.33;;;19.10;;
56712;SDS011;42589;45.536;9.032;2023-02-03T01:57:46;26.90;;;19.23;;
56712;SDS011;42589;45.536;9.032;2023-02-03T02:00:51;27.08;;;18.95;;
56712;SDS011;42589;45.536;9.032;2023-02-03T02:03:53;27.15;;;18.75;;
56712;SDS011;42589;45.536;9.032;2023-02-03T02:06:58;30.17;;;20.00;;
56712;SDS011;42589;45.536;9.032;2023-02-03T02:09:59;28.63;;;20.60;;
56712;SDS011;42589;45.536;9.032;2023-02-03T02:13:01;28.88;;;20.02;;
56712;SDS011;42589;45.536;9.032;2023-02-03T02:16:11;30.35;;;19.77;;
56712;SDS011;42589;45.536;9.032;2023-02-03T02:45:55;26.40;;;18.85;;
56712;SDS011;42589;45.536;9.032;2023-02-03T02:52:33;28.10;;;18.42;;
56712;SDS011;42589;45.536;9.032;2023-02-03T02:55:39;29.15;;;19.10;;
56712;SDS011;42589;45.536;9.032;2023-02-03T02:58:41;27.73;;;19.42;;
56712;SDS011;42589;45.536;9.032;2023-02-03T03:01:46;29.67;;;19.58;;
56712;SDS011;42589;45.536;9.032;2023-02-03T03:04:47;26.50;;;18.10;;
56712;SDS011;42589;45.536;9.032;2023-02-03T03:07:55;26.52;;;19.70;;
56712;SDS011;42589;45.536;9.032;2023-02-03T03:11:01;26.60;;;17.58;;
56712;SDS011;42589;45.536;9.032;2023-02-03T03:14:02;27.02;;;19.23;;
56712;SDS011;42589;45.536;9.032;2023-02-03T03:17:06;28.70;;;19.17;;
56712;SDS011;42589;45.536;9.032;2023-02-03T03:20:20;25.25;;;18.75;;
56712;SDS011;42589;45.536;9.032;2023-02-03T03:23:28;27.33;;;18.85;;
56712;SDS011;42589;45.536;9.032;2023-02-03T03:26:33;25.85;;;18.83;;
56712;SDS011;42589;45.536;9.032;2023-02-03T03:29:46;27.08;;;18.58;;
56712;SDS011;42589;45.536;9.032;2023-02-03T03:32:52;24.75;;;17.88;;
56712;SDS011;42589;45.536;9.032;2023-02-03T03:36:05;26.05;;;18.83;;
56712;SDS011;42589;45.536;9.032;2023-02-03T03:39:26;26.35;;;18.55;;
56712;SDS011;42589;45.536;9.032;2023-02-03T03:45:57;26.75;;;18.65;;
56712;SDS011;42589;45.536;9.032;2023-02-03T03:49:10;23.45;;;17.08;;
56712;SDS011;42589;45.536;9.032;2023-02-03T03:52:14;28.55;;;19.40;;
56712;SDS011;42589;45.536;9.032;2023-02-03T03:55:19;26.13;;;17.67;;
56712;SDS011;42589;45.536;9.032;2023-02-03T03:58:30;25.08;;;17.83;;
56712;SDS011;42589;45.536;9.032;2023-02-03T04:01:31;29.13;;;18.85;;
56712;SDS011;42589;45.536;9.032;2023-02-03T04:04:33;26.83;;;18.42;;
56712;SDS011;42589;45.536;9.032;2023-02-03T04:07:38;26.33;;;18.23;;
56712;SDS011;42589;45.536;9.032;2023-02-03T04:10:42;28.08;;;18.83;;
56712;SDS011;42589;45.536;9.032;2023-02-03T04:13:43;25.88;;;17.50;;
56712;SDS011;42589;45.536;9.032;2023-02-03T04:16:45;24.88;;;17.20;;
56712;SDS011;42589;45.536;9.032;2023-02-03T04:19:46;25.98;;;18.08;;
56712;SDS011;42589;45.536;9.032;2023-02-03T04:22:47;24.95;;;17.42;;
56712;SDS011;42589;45.536;9.032;2023-02-03T04:25:48;24.40;;;16.77;;
56712;SDS011;42589;45.536;9.032;2023-02-03T04:28:49;23.73;;;16.95;;
56712;SDS011;42589;45.536;9.032;2023-02-03T04:31:50;27.75;;;18.23;;
56712;SDS011;42589;45.536;9.032;2023-02-03T04:34:51;26.98;;;17.60;;
56712;SDS011;42589;45.536;9.032;2023-02-03T04:37:51;25.80;;;17.52;;
56712;SDS011;42589;45.536;9.032;2023-02-03T04:40:52;27.33;;;17.85;;
56712;SDS011;42589;45.536;9.032;2023-02-03T04:43:53;26.13;;;17.67;;
56712;SDS011;42589;45.536;9.032;2023-02-03T04:46:54;27.35;;;17.80;;
56712;SDS011;42589;45.536;9.032;2023-02-03T04:50:00;23.70;;;17.45;;
56712;SDS011;42589;45.536;9.032;2023-02-03T04:53:01;25.92;;;16.85;;
56712;SDS011;42589;45.536;9.032;2023-02-03T04:56:02;24.65;;;17.02;;
56712;SDS011;42589;45.536;9.032;2023-02-03T04:59:03;23.92;;;17.27;;
56712;SDS011;42589;45.536;9.032;2023-02-03T05:02:04;28.77;;;19.25;;
56712;SDS011;42589;45.536;9.032;2023-02-03T05:05:05;25.20;;;19.10;;
56712;SDS011;42589;45.536;9.032;2023-02-03T05:08:07;25.33;;;17.95;;
56712;SDS011;42589;45.536;9.032;2023-02-03T05:11:07;27.08;;;19.13;;
56712;SDS011;42589;45.536;9.032;2023-02-03T05:14:08;28.63;;;18.08;;
56712;SDS011;42589;45.536;9.032;2023-02-03T05:17:10;27.30;;;18.13;;
56712;SDS011;42589;45.536;9.032;2023-02-03T05:20:11;29.85;;;19.48;;
56712;SDS011;42589;45.536;9.032;2023-02-03T05:23:11;26.98;;;18.58;;
56712;SDS011;42589;45.536;9.032;2023-02-03T05:26:12;26.50;;;18.25;;
56712;SDS011;42589;45.536;9.032;2023-02-03T05:29:13;29.05;;;19.13;;
56712;SDS011;42589;45.536;9.032;2023-02-03T05:32:14;28.90;;;18.85;;
56712;SDS011;42589;45.536;9.032;2023-02-03T05:35:16;27.38;;;18.40;;
56712;SDS011;42589;45.536;9.032;2023-02-03T05:38:17;30.20;;;20.15;;
56712;SDS011;42589;45.536;9.032;2023-02-03T05:41:17;27.70;;;18.90;;
56712;SDS011;42589;45.536;9.032;2023-02-03T05:44:37;31.00;;;19.88;;
56712;SDS011;42589;45.536;9.032;2023-02-03T05:47:39;33.05;;;18.27;;
56712;SDS011;42589;45.536;9.032;2023-02-03T05:50:40;30.73;;;19.98;;
56712;SDS011;42589;45.536;9.032;2023-02-03T05:53:42;29.48;;;18.63;;
56712;SDS011;42589;45.536;9.032;2023-02-03T05:56:43;28.20;;;19.17;;
56712;SDS011;42589;45.536;9.032;2023-02-03T05:59:44;27.45;;;19.58;;
56712;SDS011;42589;45.536;9.032;2023-02-03T06:02:44;27.13;;;18.77;;
56712;SDS011;42589;45.536;9.032;2023-02-03T06:05:56;28.83;;;20.08;;
56712;SDS011;42589;45.536;9.032;2023-02-03T06:09:01;31.08;;;18.42;;
56712;SDS011;42589;45.536;9.032;2023-02-03T06:12:04;28.58;;;18.75;;
56712;SDS011;42589;45.536;9.032;2023-02-03T06:15:06;32.80;;;20.08;;
56712;SDS011;42589;45.536;9.032;2023-02-03T06:18:09;30.88;;;19.90;;
56712;SDS011;42589;45.536;9.032;2023-02-03T06:21:10;34.92;;;21.27;;
56712;SDS011;42589;45.536;9.032;2023-02-03T06:24:11;34.17;;;19.88;;
56712;SDS011;42589;45.536;9.032;2023-02-03T06:27:12;31.17;;;19.20;;
56712;SDS011;42589;45.536;9.032;2023-02-03T06:30:13;36.05;;;20.10;;
56712;SDS011;42589;45.536;9.032;2023-02-03T06:33:15;29.55;;;19.13;;
56712;SDS011;42589;45.536;9.032;2023-02-03T06:36:16;27.63;;;18.95;;
56712;SDS011;42589;45.536;9.032;2023-02-03T06:39:17;32.45;;;19.58;;
56712;SDS011;42589;45.536;9.032;2023-02-03T06:42:18;29.25;;;20.63;;
56712;SDS011;42589;45.536;9.032;2023-02-03T06:45:18;37.65;;;21.30;;
56712;SDS011;42589;45.536;9.032;2023-02-03T06:48:19;37.47;;;23.40;;
56712;SDS011;42589;45.536;9.032;2023-02-03T06:51:19;35.55;;;20.65;;
56712;SDS011;42589;45.536;9.032;2023-02-03T06:54:20;34.13;;;21.42;;
56712;SDS011;42589;45.536;9.032;2023-02-03T06:57:21;31.08;;;21.38;;
56712;SDS011;42589;45.536;9.032;2023-02-03T07:00:22;35.63;;;21.52;;
56712;SDS011;42589;45.536;9.032;2023-02-03T07:03:23;33.58;;;21.50;;
56712;SDS011;42589;45.536;9.032;2023-02-03T07:06:24;37.72;;;21.75;;
56712;SDS011;42589;45.536;9.032;2023-02-03T07:09:28;32.90;;;21.17;;
56712;SDS011;42589;45.536;9.032;2023-02-03T07:12:29;34.85;;;21.85;;
56712;SDS011;42589;45.536;9.032;2023-02-03T07:15:30;30.35;;;20.75;;
56712;SDS011;42589;45.536;9.032;2023-02-03T07:18:31;34.70;;;21.20;;
56712;SDS011;42589;45.536;9.032;2023-02-03T07:21:32;34.38;;;22.15;;
56712;SDS011;42589;45.536;9.032;2023-02-03T07:24:34;38.78;;;22.80;;
56712;SDS011;42589;45.536;9.032;2023-02-03T07:27:35;48.15;;;22.38;;
56712;SDS011;42589;45.536;9.032;2023-02-03T07:30:36;34.17;;;21.92;;
56712;SDS011;42589;45.536;9.032;2023-02-03T07:33:37;33.08;;;21.00;;
56712;SDS011;42589;45.536;9.032;2023-02-03T07:36:39;43.42;;;24.05;;
56712;SDS011;42589;45.536;9.032;2023-02-03T07:39:43;35.88;;;22.52;;
56712;SDS011;42589;45.536;9.032;2023-02-03T07:42:45;41.22;;;23.75;;
56712;SDS011;42589;45.536;9.032;2023-02-03T07:45:47;37.13;;;22.90;;
56712;SDS011;42589;45.536;9.032;2023-02-03T07:48:51;36.67;;;22.27;;
56712;SDS011;42589;45.536;9.032;2023-02-03T07:51:52;37.78;;;23.05;;
56712;SDS011;42589;45.536;9.032;2023-02-03T07:54:53;38.33;;;22.27;;
56712;SDS011;42589;45.536;9.032;2023-02-03T07:57:54;39.35;;;23.27;;
56712;SDS011;42589;45.536;9.032;2023-02-03T08:00:56;36.40;;;23.55;;
56712;SDS011;42589;45.536;9.032;2023-02-03T08:03:57;31.17;;;20.98;;
56712;SDS011;42589;45.536;9.032;2023-02-03T08:07:00;30.88;;;20.17;;
56712;SDS011;42589;45.536;9.032;2023-02-03T08:10:02;38.15;;;21.85;;
56712;SDS011;42589;45.536;9.032;2023-02-03T08:13:03;33.15;;;20.33;;
56712;SDS011;42589;45.536;9.032;2023-02-03T08:16:04;33.28;;;20.20;;
56712;SDS011;42589;45.536;9.032;2023-02-03T08:19:06;31.25;;;20.08;;
56712;SDS011;42589;45.536;9.032;2023-02-03T08:22:08;31.33;;;20.33;;
56712;SDS011;42589;45.536;9.032;2023-02-03T08:25:09;32.55;;;20.17;;
56712;SDS011;42589;45.536;9.032;2023-02-03T08:28:10;36.72;;;20.63;;
56712;SDS011;42589;45.536;9.032;2023-02-03T08:31:11;30.85;;;20.45;;
56712;SDS011;42589;45.536;9.032;2023-02-03T08:34:11;32.10;;;19.42;;
56712;SDS011;42589;45.536;9.032;2023-02-03T08:37:13;29.98;;;18.73;;
56712;SDS011;42589;45.536;9.032;2023-02-03T08:40:15;31.98;;;21.20;;
56712;SDS011;42589;45.536;9.032;2023-02-03T08:43:16;34.10;;;19.30;;
56712;SDS011;42589;45.536;9.032;2023-02-03T08:46:17;28.90;;;18.77;;
56712;SDS011;42589;45.536;9.032;2023-02-03T08:49:18;30.63;;;19.40;;
56712;SDS011;42589;45.536;9.032;2023-02-03T08:52:20;28.92;;;18.73;;
56712;SDS011;42589;45.536;9.032;2023-02-03T08:55:20;35.83;;;21.63;;
56712;SDS011;42589;45.536;9.032;2023-02-03T08:58:24;31.13;;;21.20;;
56712;SDS011;42589;45.536;9.032;2023-02-03T09:01:24;34.03;;;21.83;;
56712;SDS011;42589;45.536;9.032;2023-02-03T09:04:25;38.65;;;22.92;;
56712;SDS011;42589;45.536;9.032;2023-02-03T09:07:26;31.98;;;21.80;;
56712;SDS011;42589;45.536;9.032;2023-02-03T09:10:27;35.75;;;22.20;;
56712;SDS011;42589;45.536;9.032;2023-02-03T09:13:29;32.65;;;21.98;;
56712;SDS011;42589;45.536;9.032;2023-02-03T09:16:29;35.00;;;21.88;;
56712;SDS011;42589;45.536;9.032;2023-02-03T09:19:31;34.25;;;21.63;;
56712;SDS011;42589;45.536;9.032;2023-02-03T09:22:36;28.13;;;20.45;;
56712;SDS011;42589;45.536;9.032;2023-02-03T09:25:39;30.35;;;19.70;;
56712;SDS011;42589;45.536;9.032;2023-02-03T09:28:40;31.67;;;20.48;;
56712;SDS011;42589;45.536;9.032;2023-02-03T09:31:42;30.10;;;21.33;;
56712;SDS011;42589;45.536;9.032;2023-02-03T09:34:43;32.83;;;20.77;;
56712;SDS011;42589;45.536;9.032;2023-02-03T09:37:45;38.30;;;23.33;;
56712;SDS011;42589;45.536;9.032;2023-02-03T09:47:37;32.97;;;23.42;;
56712;SDS011;42589;45.536;9.032;2023-02-03T09:50:41;38.05;;;23.35;;
56712;SDS011;42589;45.536;9.032;2023-02-03T09:53:44;42.05;;;25.67;;
56712;SDS011;42589;45.536;9.032;2023-02-03T09:56:49;31.98;;;23.42;;
56712;SDS011;42589;45.536;9.032;2023-02-03T09:59:56;39.42;;;25.08;;
56712;SDS011;42589;45.536;9.032;2023-02-03T10:03:02;36.15;;;23.52;;
56712;SDS011;42589;45.536;9.032;2023-02-03T10:16:12;37.90;;;23.45;;
56712;SDS011;42589;45.536;9.032;2023-02-03T10:19:26;39.28;;;28.02;;
56712;SDS011;42589;45.536;9.032;2023-02-03T10:22:46;41.80;;;27.67;;
56712;SDS011;42589;45.536;9.032;2023-02-03T10:25:51;42.55;;;26.67;;
56712;SDS011;42589;45.536;9.032;2023-02-03T10:28:55;29.48;;;21.88;;
56712;SDS011;42589;45.536;9.032;2023-02-03T10:31:57;24.67;;;16.58;;
56712;SDS011;42589;45.536;9.032;2023-02-03T10:34:59;20.10;;;15.38;;
56712;SDS011;42589;45.536;9.032;2023-02-03T10:38:01;21.77;;;15.32;;
56712;SDS011;42589;45.536;9.032;2023-02-03T10:41:05;20.95;;;14.75;;
56712;SDS011;42589;45.536;9.032;2023-02-03T10:44:06;21.70;;;15.25;;
56712;SDS011;42589;45.536;9.032;2023-02-03T10:50:37;18.48;;;12.40;;
56712;SDS011;42589;45.536;9.032;2023-02-03T10:53:44;20.70;;;13.88;;
56712;SDS011;42589;45.536;9.032;2023-02-03T10:56:47;23.13;;;17.07;;
56712;SDS011;42589;45.536;9.032;2023-02-03T11:00:05;22.92;;;15.25;;
56712;SDS011;42589;45.536;9.032;2023-02-03T11:03:27;25.58;;;16.63;;
56712;SDS011;42589;45.536;9.032;2023-02-03T11:06:28;14.30;;;11.80;;
56712;SDS011;42589;45.536;9.032;2023-02-03T11:09:32;16.10;;;11.95;;
56712;SDS011;42589;45.536;9.032;2023-02-03T11:12:37;19.00;;;13.07;;
56712;SDS011;42589;45.536;9.032;2023-02-03T11:16:21;16.52;;;12.80;;
56712;SDS011;42589;45.536;9.032;2023-02-03T11:22:27;11.98;;;9.40;;
56712;SDS011;42589;45.536;9.032;2023-02-03T11:25:31;11.80;;;8.70;;
56712;SDS011;42589;45.536;9.032;2023-02-03T11:28:32;12.07;;;7.97;;
56712;SDS011;42589;45.536;9.032;2023-02-03T11:31:34;10.13;;;8.02;;
56712;SDS011;42589;45.536;9.032;2023-02-03T11:34:36;13.25;;;7.95;;
56712;SDS011;42589;45.536;9.032;2023-02-03T11:37:41;14.40;;;8.55;;
56712;SDS011;42589;45.536;9.032;2023-02-03T11:40:44;14.60;;;9.18;;
56712;SDS011;42589;45.536;9.032;2023-02-03T11:43:45;15.35;;;9.30;;
56712;SDS011;42589;45.536;9.032;2023-02-03T11:46:46;17.55;;;10.18;;
56712;SDS011;42589;45.536;9.032;2023-02-03T11:53:03;17.00;;;9.45;;
56712;SDS011;42589;45.536;9.032;2023-02-03T12:06:03;17.52;;;10.70;;
56712;SDS011;42589;45.536;9.032;2023-02-03T12:15:49;16.45;;;10.68;;
56712;SDS011;42589;45.536;9.032;2023-02-03T12:22:56;17.17;;;11.40;;
56712;SDS011;42589;45.536;9.032;2023-02-03T12:26:17;17.25;;;11.13;;
56712;SDS011;42589;45.536;9.032;2023-02-03T12:29:26;18.48;;;11.68;;
56712;SDS011;42589;45.536;9.032;2023-02-03T12:32:36;16.73;;;11.57;;
56712;SDS011;42589;45.536;9.032;2023-02-03T12:35:55;17.40;;;11.27;;
56712;SDS011;42589;45.536;9.032;2023-02-03T12:39:13;18.00;;;12.32;;
56712;SDS011;42589;45.536;9.032;2023-02-03T12:45:29;20.23;;;12.25;;
56712;SDS011;42589;45.536;9.032;2023-02-03T12:52:02;17.02;;;10.95;;
56712;SDS011;42589;45.536;9.032;2023-02-03T12:58:45;23.77;;;15.23;;
56712;SDS011;42589;45.536;9.032;2023-02-03T13:01:57;21.58;;;14.68;;
56712;SDS011;42589;45.536;9.032;2023-02-03T13:05:08;25.90;;;15.90;;
56712;SDS011;42589;45.536;9.032;2023-02-03T13:08:34;24.15;;;16.55;;
56712;SDS011;42589;45.536;9.032;2023-02-03T13:15:23;26.70;;;15.35;;
56712;SDS011;42589;45.536;9.032;2023-02-03T13:18:30;26.13;;;15.63;;
56712;SDS011;42589;45.536;9.032;2023-02-03T13:21:33;23.80;;;14.65;;
56712;SDS011;42589;45.536;9.032;2023-02-03T13:24:35;24.30;;;15.35;;
56712;SDS011;42589;45.536;9.032;2023-02-03T13:27:40;24.10;;;15.02;;
56712;SDS011;42589;45.536;9.032;2023-02-03T13:34:15;23.48;;;15.05;;
56712;SDS011;42589;45.536;9.032;2023-02-03T13:37:46;23.67;;;16.27;;
56712;SDS011;42589;45.536;9.032;2023-02-03T13:41:10;23.42;;;14.55;;
56712;SDS011;42589;45.536;9.032;2023-02-03T13:44:23;24.17;;;15.63;;
56712;SDS011;42589;45.536;9.032;2023-02-03T13:47:28;28.98;;;16.42;;
56712;SDS011;42589;45.536;9.032;2023-02-03T13:50:31;25.48;;;15.77;;
56712;SDS011;42589;45.536;9.032;2023-02-03T13:53:33;25.70;;;15.77;;
56712;SDS011;42589;45.536;9.032;2023-02-03T13:56:37;24.20;;;16.25;;
56712;SDS011;42589;45.536;9.032;2023-02-03T13:59:40;26.08;;;16.48;;
56712;SDS011;42589;45.536;9.032;2023-02-03T14:02:44;23.88;;;16.13;;
56712;SDS011;42589;45.536;9.032;2023-02-03T14:05:56;25.52;;;16.95;;
56712;SDS011;42589;45.536;9.032;2023-02-03T14:08:58;24.63;;;16.58;;
56712;SDS011;42589;45.536;9.032;2023-02-03T14:12:19;26.42;;;16.85;;
56712;SDS011;42589;45.536;9.032;2023-02-03T14:15:30;25.10;;;17.05;;
56712;SDS011;42589;45.536;9.032;2023-02-03T14:18:33;28.83;;;17.83;;
56712;SDS011;42589;45.536;9.032;2023-02-03T14:25:03;30.83;;;18.33;;
56712;SDS011;42589;45.536;9.032;2023-02-03T14:28:07;30.02;;;18.92;;
56712;SDS011;42589;45.536;9.032;2023-02-03T14:31:16;27.25;;;17.73;;
56712;SDS011;42589;45.536;9.032;2023-02-03T14:34:26;25.77;;;17.38;;
56712;SDS011;42589;45.536;9.032;2023-02-03T14:37:38;27.50;;;17.17;;
56712;SDS011;42589;45.536;9.032;2023-02-03T14:41:01;24.50;;;16.33;;
56712;SDS011;42589;45.536;9.032;2023-02-03T14:44:18;28.30;;;15.97;;
56712;SDS011;42589;45.536;9.032;2023-02-03T14:54:39;26.45;;;15.75;;
56712;SDS011;42589;45.536;9.032;2023-02-03T14:57:52;23.50;;;15.45;;
56712;SDS011;42589;45.536;9.032;2023-02-03T15:00:56;21.63;;;14.25;;
56712;SDS011;42589;45.536;9.032;2023-02-03T15:13:38;21.58;;;14.18;;
56712;SDS011;42589;45.536;9.032;2023-02-03T15:16:41;21.25;;;14.68;;
56712;SDS011;42589;45.536;9.032;2023-02-03T15:19:44;23.13;;;14.38;;
56712;SDS011;42589;45.536;9.032;2023-02-03T15:22:46;26.45;;;15.32;;
56712;SDS011;42589;45.536;9.032;2023-02-03T15:25:57;23.33;;;14.98;;
56712;SDS011;42589;45.536;9.032;2023-02-03T15:29:01;22.45;;;14.13;;
56712;SDS011;42589;45.536;9.032;2023-02-03T15:32:08;22.30;;;14.32;;
56712;SDS011;42589;45.536;9.032;2023-02-03T15:35:15;25.90;;;14.65;;
56712;SDS011;42589;45.536;9.032;2023-02-03T15:38:24;22.83;;;14.10;;
56712;SDS011;42589;45.536;9.032;2023-02-03T15:41:28;24.73;;;15.50;;
56712;SDS011;42589;45.536;9.032;2023-02-03T15:44:30;22.38;;;14.38;;
56712;SDS011;42589;45.536;9.032;2023-02-03T15:47:37;29.48;;;15.23;;
56712;SDS011;42589;45.536;9.032;2023-02-03T15:59:57;22.80;;;13.70;;
56712;SDS011;42589;45.536;9.032;2023-02-03T16:03:00;21.83;;;13.45;;
56712;SDS011;42589;45.536;9.032;2023-02-03T16:12:34;25.50;;;15.45;;
56712;SDS011;42589;45.536;9.032;2023-02-03T16:15:35;27.05;;;14.63;;
56712;SDS011;42589;45.536;9.032;2023-02-03T16:18:36;22.85;;;13.75;;
56712;SDS011;42589;45.536;9.032;2023-02-03T16:24:50;21.85;;;13.50;;
56712;SDS011;42589;45.536;9.032;2023-02-03T16:27:54;25.23;;;13.95;;
56712;SDS011;42589;45.536;9.032;2023-02-03T16:31:17;26.27;;;13.52;;
56712;SDS011;42589;45.536;9.032;2023-02-03T16:34:38;32.33;;;13.43;;
56712;SDS011;42589;45.536;9.032;2023-02-03T16:38:03;21.08;;;12.77;;
56712;SDS011;42589;45.536;9.032;2023-02-03T16:41:32;19.05;;;12.93;;
56712;SDS011;42589;45.536;9.032;2023-02-03T16:44:52;23.77;;;13.27;;
56712;SDS011;42589;45.536;9.032;2023-02-03T16:48:12;24.30;;;13.43;;
56712;SDS011;42589;45.536;9.032;2023-02-03T16:51:39;22.55;;;12.85;;
56712;SDS011;42589;45.536;9.032;2023-02-03T16:54:41;23.17;;;12.52;;
56712;SDS011;42589;45.536;9.032;2023-02-03T16:57:42;19.58;;;12.13;;
56712;SDS011;42589;45.536;9.032;2023-02-03T17:00:43;23.30;;;13.48;;
56712;SDS011;42589;45.536;9.032;2023-02-03T17:03:45;20.25;;;13.13;;
56712;SDS011;42589;45.536;9.032;2023-02-03T17:06:46;21.17;;;12.73;;
56712;SDS011;42589;45.536;9.032;2023-02-03T17:09:53;21.10;;;12.77;;
56712;SDS011;42589;45.536;9.032;2023-02-03T17:15:55;23.00;;;13.00;;
56712;SDS011;42589;45.536;9.032;2023-02-03T17:18:57;21.83;;;13.30;;
56712;SDS011;42589;45.536;9.032;2023-02-03T17:25:02;25.17;;;14.25;;
56712;SDS011;42589;45.536;9.032;2023-02-03T17:28:06;21.70;;;14.60;;
56712;SDS011;42589;45.536;9.032;2023-02-03T17:31:11;23.77;;;14.27;;
56712;SDS011;42589;45.536;9.032;2023-02-03T17:34:13;27.30;;;15.25;;
56712;SDS011;42589;45.536;9.032;2023-02-03T17:37:14;24.98;;;15.88;;
56712;SDS011;42589;45.536;9.032;2023-02-03T17:40:15;26.63;;;16.73;;
56712;SDS011;42589;45.536;9.032;2023-02-03T17:43:16;28.92;;;17.27;;
56712;SDS011;42589;45.536;9.032;2023-02-03T17:46:22;30.60;;;17.85;;
56712;SDS011;42589;45.536;9.032;2023-02-03T17:49:23;32.15;;;17.85;;
56712;SDS011;42589;45.536;9.032;2023-02-03T17:52:24;30.95;;;17.90;;
56712;SDS011;42589;45.536;9.032;2023-02-03T17:55:25;29.33;;;18.35;;
56712;SDS011;42589;45.536;9.032;2023-02-03T17:58:26;32.28;;;18.30;;
56712;SDS011;42589;45.536;9.032;2023-02-03T18:01:27;31.38;;;18.23;;
56712;SDS011;42589;45.536;9.032;2023-02-03T18:04:28;35.83;;;18.48;;
56712;SDS011;42589;45.536;9.032;2023-02-03T18:07:29;29.02;;;18.50;;
56712;SDS011;42589;45.536;9.032;2023-02-03T18:10:30;34.72;;;18.52;;
56712;SDS011;42589;45.536;9.032;2023-02-03T18:13:34;35.10;;;20.10;;
56712;SDS011;42589;45.536;9.032;2023-02-03T18:16:38;34.17;;;20.83;;
56712;SDS011;42589;45.536;9.032;2023-02-03T18:19:39;37.03;;;21.42;;
56712;SDS011;42589;45.536;9.032;2023-02-03T18:22:42;33.50;;;21.10;;
56712;SDS011;42589;45.536;9.032;2023-02-03T18:25:43;35.67;;;21.95;;
56712;SDS011;42589;45.536;9.032;2023-02-03T18:28:46;33.17;;;20.95;;
56712;SDS011;42589;45.536;9.032;2023-02-03T18:31:51;34.50;;;21.80;;
56712;SDS011;42589;45.536;9.032;2023-02-03T18:34:52;34.22;;;21.45;;
56712;SDS011;42589;45.536;9.032;2023-02-03T18:37:53;32.67;;;20.98;;
56712;SDS011;42589;45.536;9.032;2023-02-03T18:40:54;37.30;;;21.23;;
56712;SDS011;42589;45.536;9.032;2023-02-03T18:43:55;34.90;;;20.27;;
56712;SDS011;42589;45.536;9.032;2023-02-03T18:46:55;31.40;;;18.88;;
56712;SDS011;42589;45.536;9.032;2023-02-03T18:50:04;30.45;;;18.42;;
56712;SDS011;42589;45.536;9.032;2023-02-03T18:53:05;26.67;;;17.23;;
56712;SDS011;42589;45.536;9.032;2023-02-03T18:56:08;26.58;;;16.15;;
56712;SDS011;42589;45.536;9.032;2023-02-03T18:59:13;20.33;;;13.90;;
56712;SDS011;42589;45.536;9.032;2023-02-03T19:02:14;22.45;;;14.48;;
56712;SDS011;42589;45.536;9.032;2023-02-03T19:05:15;23.25;;;14.07;;
56712;SDS011;42589;45.536;9.032;2023-02-03T19:08:16;21.13;;;13.63;;
56712;SDS011;42589;45.536;9.032;2023-02-03T19:11:18;19.23;;;12.27;;
56712;SDS011;42589;45.536;9.032;2023-02-03T19:14:19;21.25;;;12.85;;
56712;SDS011;42589;45.536;9.032;2023-02-03T19:17:20;21.88;;;12.23;;
56712;SDS011;42589;45.536;9.032;2023-02-03T19:20:22;16.17;;;10.85;;
56712;SDS011;42589;45.536;9.032;2023-02-03T19:23:23;18.33;;;11.05;;
56712;SDS011;42589;45.536;9.032;2023-02-03T19:26:25;17.55;;;10.85;;
56712;SDS011;42589;45.536;9.032;2023-02-03T19:29:26;16.75;;;9.85;;
56712;SDS011;42589;45.536;9.032;2023-02-03T19:32:27;16.20;;;8.70;;
56712;SDS011;42589;45.536;9.032;2023-02-03T19:35:28;13.15;;;8.30;;
56712;SDS011;42589;45.536;9.032;2023-02-03T19:38:32;18.13;;;8.10;;
56712;SDS011;42589;45.536;9.032;2023-02-03T19:41:33;11.73;;;7.80;;
56712;SDS011;42589;45.536;9.032;2023-02-03T19:44:37;16.20;;;7.50;;
56712;SDS011;42589;45.536;9.032;2023-02-03T19:47:38;17.40;;;7.25;;
56712;SDS011;42589;45.536;9.032;2023-02-03T19:50:39;13.60;;;7.30;;
56712;SDS011;42589;45.536;9.032;2023-02-03T19:53:44;13.55;;;6.68;;
56712;SDS011;42589;45.536;9.032;2023-02-03T19:56:45;11.35;;;7.50;;
56712;SDS011;42589;45.536;9.032;2023-02-03T19:59:46;12.85;;;7.70;;
56712;SDS011;42589;45.536;9.032;2023-02-03T20:02:47;11.82;;;6.95;;
56712;SDS011;42589;45.536;9.032;2023-02-03T20:05:50;14.93;;;6.88;;
56712;SDS011;42589;45.536;9.032;2023-02-03T20:08:54;15.23;;;6.90;;
56712;SDS011;42589;45.536;9.032;2023-02-03T20:11:55;15.05;;;6.78;;
56712;SDS011;42589;45.536;9.032;2023-02-03T20:14:56;12.07;;;6.78;;
56712;SDS011;42589;45.536;9.032;2023-02-03T20:17:59;12.10;;;6.97;;
56712;SDS011;42589;45.536;9.032;2023-02-03T20:21:00;12.90;;;7.07;;
56712;SDS011;42589;45.536;9.032;2023-02-03T20:24:01;15.20;;;6.68;;